sensor_id;sensor_type;location;lat;lon;timestamp;P1;durP1;ratioP1;P2;durP2;ratioP2
4971;SDS011;2501;51.214;6.768;2023-04-24T00:01:36;2.20;;;2.00;;
4971;SDS011;2501;51.214;6.768;2023-04-24T00:04:04;2.22;;;1.73;;
4971;SDS011;2501;51.214;6.768;2023-04-24T00:06:36;1.63;;;1.52;;
4971;SDS011;2501;51.214;6.768;2023-04-24T00:09:07;2.00;;;1.50;;
4971;SDS011;2501;51.214;6.768;2023-04-24T00:11:39;2.90;;;2.70;;
4971;SDS011;2501;51.214;6.768;2023-04-24T00:14:07;2.73;;;2.40;;
4971;SDS011;2501;51.214;6.768;2023-04-24T00:16:35;2.00;;;1.77;;
4971;SDS011;2501;51.214;6.768;2023-04-24T00:19:04;1.55;;;1.45;;
4971;SDS011;2501;51.214;6.768;2023-04-24T00:21:32;1.58;;;1.48;;
4971;SDS011;2501;51.214;6.768;2023-04-24T00:24:01;1.17;;;1.17;;
4971;SDS011;2501;51.214;6.768;2023-04-24T00:26:29;2.00;;;1.90;;
4971;SDS011;2501;51.214;6.768;2023-04-24T00:29:00;1.90;;;1.80;;
4971;SDS011;2501;51.214;6.768;2023-04-24T00:31:29;1.60;;;1.50;;
4971;SDS011;2501;51.214;6.768;2023-04-24T00:33:59;2.10;;;1.80;;
4971;SDS011;2501;51.214;6.768;2023-04-24T00:36:28;1.80;;;1.70;;
4971;SDS011;2501;51.214;6.768;2023-04-24T00:38:57;1.73;;;1.60;;
4971;SDS011;2501;51.214;6.768;2023-04-24T00:41:26;1.60;;;1.50;;
4971;SDS011;2501;51.214;6.768;2023-04-24T00:43:54;2.60;;;1.73;;
4971;SDS011;2501;51.214;6.768;2023-04-24T00:46:25;2.22;;;1.90;;
4971;SDS011;2501;51.214;6.768;2023-04-24T00:48:54;1.90;;;1.80;;
4971;SDS011;2501;51.214;6.768;2023-04-24T00:51:24;1.80;;;1.60;;
4971;SDS011;2501;51.214;6.768;2023-04-24T00:53:52;3.00;;;1.90;;
4971;SDS011;2501;51.214;6.768;2023-04-24T00:56:21;2.43;;;2.23;;
4971;SDS011;2501;51.214;6.768;2023-04-24T00:58:49;2.05;;;1.95;;
4971;SDS011;2501;51.214;6.768;2023-04-24T01:01:18;1.98;;;1.88;;
4971;SDS011;2501;51.214;6.768;2023-04-24T01:03:51;5.40;;;2.20;;
4971;SDS011;2501;51.214;6.768;2023-04-24T01:06:20;2.25;;;2.15;;
4971;SDS011;2501;51.214;6.768;2023-04-24T01:08:50;3.28;;;2.40;;
4971;SDS011;2501;51.214;6.768;2023-04-24T01:11:18;3.40;;;2.40;;
4971;SDS011;2501;51.214;6.768;2023-04-24T01:13:47;4.20;;;2.92;;
4971;SDS011;2501;51.214;6.768;2023-04-24T01:16:15;4.78;;;3.50;;
4971;SDS011;2501;51.214;6.768;2023-04-24T01:18:45;5.18;;;3.78;;
4971;SDS011;2501;51.214;6.768;2023-04-24T01:21:16;5.53;;;3.80;;
4971;SDS011;2501;51.214;6.768;2023-04-24T01:23:49;7.65;;;4.90;;
4971;SDS011;2501;51.214;6.768;2023-04-24T01:26:19;6.13;;;4.97;;
4971;SDS011;2501;51.214;6.768;2023-04-24T01:28:47;7.05;;;4.70;;
4971;SDS011;2501;51.214;6.768;2023-04-24T01:31:16;5.83;;;4.60;;
4971;SDS011;2501;51.214;6.768;2023-04-24T01:33:44;8.43;;;4.90;;
4971;SDS011;2501;51.214;6.768;2023-04-24T01:36:13;7.37;;;4.33;;
4971;SDS011;2501;51.214;6.768;2023-04-24T01:38:42;9.80;;;4.82;;
4971;SDS011;2501;51.214;6.768;2023-04-24T01:41:14;7.10;;;5.85;;
4971;SDS011;2501;51.214;6.768;2023-04-24T01:43:43;7.43;;;6.20;;
4971;SDS011;2501;51.214;6.768;2023-04-24T01:46:11;7.57;;;6.50;;
4971;SDS011;2501;51.214;6.768;2023-04-24T01:48:40;9.77;;;7.10;;
4971;SDS011;2501;51.214;6.768;2023-04-24T01:51:09;10.43;;;6.53;;
4971;SDS011;2501;51.214;6.768;2023-04-24T01:53:37;11.65;;;6.55;;
4971;SDS011;2501;51.214;6.768;2023-04-24T01:56:06;12.40;;;7.53;;
4971;SDS011;2501;51.214;6.768;2023-04-24T01:58:37;9.32;;;7.22;;
4971;SDS011;2501;51.214;6.768;2023-04-24T02:01:06;11.50;;;7.60;;
4971;SDS011;2501;51.214;6.768;2023-04-24T02:03:34;15.85;;;8.80;;
4971;SDS011;2501;51.214;6.768;2023-04-24T02:06:03;15.73;;;8.00;;
4971;SDS011;2501;51.214;6.768;2023-04-24T02:08:31;14.73;;;8.57;;
4971;SDS011;2501;51.214;6.768;2023-04-24T02:11:00;15.80;;;8.30;;
4971;SDS011;2501;51.214;6.768;2023-04-24T02:13:29;10.82;;;7.50;;
4971;SDS011;2501;51.214;6.768;2023-04-24T02:16:00;11.13;;;8.18;;
4971;SDS011;2501;51.214;6.768;2023-04-24T02:18:29;11.30;;;7.80;;
4971;SDS011;2501;51.214;6.768;2023-04-24T02:20:57;11.13;;;8.10;;
4971;SDS011;2501;51.214;6.768;2023-04-24T02:23:25;12.32;;;8.27;;
4971;SDS011;2501;51.214;6.768;2023-04-24T02:25:54;11.77;;;8.13;;
4971;SDS011;2501;51.214;6.768;2023-04-24T02:28:22;16.33;;;7.47;;
4971;SDS011;2501;51.214;6.768;2023-04-24T02:30:51;13.85;;;8.30;;
4971;SDS011;2501;51.214;6.768;2023-04-24T02:33:22;12.95;;;8.15;;
4971;SDS011;2501;51.214;6.768;2023-04-24T02:35:50;15.07;;;8.23;;
4971;SDS011;2501;51.214;6.768;2023-04-24T02:38:18;10.82;;;7.78;;
4971;SDS011;2501;51.214;6.768;2023-04-24T02:40:47;13.73;;;8.82;;
4971;SDS011;2501;51.214;6.768;2023-04-24T02:43:15;16.25;;;9.18;;
4971;SDS011;2501;51.214;6.768;2023-04-24T02:45:44;15.65;;;8.40;;
4971;SDS011;2501;51.214;6.768;2023-04-24T02:48:12;13.80;;;8.20;;
4971;SDS011;2501;51.214;6.768;2023-04-24T02:50:44;14.90;;;9.38;;
4971;SDS011;2501;51.214;6.768;2023-04-24T02:53:13;12.18;;;8.85;;
4971;SDS011;2501;51.214;6.768;2023-04-24T02:55:41;12.10;;;8.95;;
4971;SDS011;2501;51.214;6.768;2023-04-24T02:58:11;14.60;;;9.10;;
4971;SDS011;2501;51.214;6.768;2023-04-24T03:00:39;17.45;;;9.50;;
4971;SDS011;2501;51.214;6.768;2023-04-24T03:03:08;18.23;;;10.88;;
4971;SDS011;2501;51.214;6.768;2023-04-24T03:05:36;15.23;;;10.30;;
4971;SDS011;2501;51.214;6.768;2023-04-24T03:08:08;16.52;;;9.82;;
4971;SDS011;2501;51.214;6.768;2023-04-24T03:10:36;15.47;;;9.40;;
4971;SDS011;2501;51.214;6.768;2023-04-24T03:13:04;14.43;;;10.02;;
4971;SDS011;2501;51.214;6.768;2023-04-24T03:15:33;17.25;;;9.27;;
4971;SDS011;2501;51.214;6.768;2023-04-24T03:18:01;18.08;;;10.05;;
4971;SDS011;2501;51.214;6.768;2023-04-24T03:20:30;17.38;;;10.52;;
4971;SDS011;2501;51.214;6.768;2023-04-24T03:22:58;15.13;;;9.63;;
4971;SDS011;2501;51.214;6.768;2023-04-24T03:25:29;14.00;;;9.88;;
4971;SDS011;2501;51.214;6.768;2023-04-24T03:27:57;13.73;;;10.05;;
4971;SDS011;2501;51.214;6.768;2023-04-24T03:30:26;13.73;;;8.93;;
4971;SDS011;2501;51.214;6.768;2023-04-24T03:32:54;13.82;;;9.20;;
4971;SDS011;2501;51.214;6.768;2023-04-24T03:35:23;14.02;;;10.25;;
4971;SDS011;2501;51.214;6.768;2023-04-24T03:37:51;18.57;;;10.00;;
4971;SDS011;2501;51.214;6.768;2023-04-24T03:40:20;13.98;;;9.13;;
4971;SDS011;2501;51.214;6.768;2023-04-24T03:42:51;16.23;;;8.75;;
4971;SDS011;2501;51.214;6.768;2023-04-24T03:45:19;14.52;;;9.43;;
4971;SDS011;2501;51.214;6.768;2023-04-24T03:47:48;16.35;;;9.40;;
4971;SDS011;2501;51.214;6.768;2023-04-24T03:50:16;17.50;;;9.60;;
4971;SDS011;2501;51.214;6.768;2023-04-24T03:52:45;22.77;;;9.70;;
4971;SDS011;2501;51.214;6.768;2023-04-24T03:55:13;15.88;;;10.30;;
4971;SDS011;2501;51.214;6.768;2023-04-24T03:57:42;14.98;;;9.40;;
4971;SDS011;2501;51.214;6.768;2023-04-24T04:00:13;13.50;;;9.03;;
4971;SDS011;2501;51.214;6.768;2023-04-24T04:02:43;13.13;;;9.32;;
4971;SDS011;2501;51.214;6.768;2023-04-24T04:05:12;15.25;;;9.90;;
4971;SDS011;2501;51.214;6.768;2023-04-24T04:07:40;18.20;;;10.00;;
4971;SDS011;2501;51.214;6.768;2023-04-24T04:10:09;14.23;;;9.70;;
4971;SDS011;2501;51.214;6.768;2023-04-24T04:12:37;15.55;;;9.68;;
4971;SDS011;2501;51.214;6.768;2023-04-24T04:15:06;15.43;;;9.70;;
4971;SDS011;2501;51.214;6.768;2023-04-24T04:17:38;15.93;;;10.23;;
4971;SDS011;2501;51.214;6.768;2023-04-24T04:20:06;15.55;;;10.10;;
4971;SDS011;2501;51.214;6.768;2023-04-24T04:22:36;17.20;;;9.60;;
4971;SDS011;2501;51.214;6.768;2023-04-24T04:25:04;12.73;;;8.60;;
4971;SDS011;2501;51.214;6.768;2023-04-24T04:27:33;16.17;;;9.55;;
4971;SDS011;2501;51.214;6.768;2023-04-24T04:30:02;15.70;;;8.85;;
4971;SDS011;2501;51.214;6.768;2023-04-24T04:32:31;11.43;;;8.40;;
4971;SDS011;2501;51.214;6.768;2023-04-24T04:37:58;13.70;;;9.05;;
4971;SDS011;2501;51.214;6.768;2023-04-24T04:40:26;11.07;;;8.65;;
4971;SDS011;2501;51.214;6.768;2023-04-24T04:42:55;14.05;;;9.00;;
4971;SDS011;2501;51.214;6.768;2023-04-24T04:45:24;13.85;;;8.88;;
4971;SDS011;2501;51.214;6.768;2023-04-24T04:47:53;10.27;;;8.90;;
4971;SDS011;2501;51.214;6.768;2023-04-24T04:50:25;17.73;;;8.88;;
4971;SDS011;2501;51.214;6.768;2023-04-24T04:52:53;15.00;;;8.50;;
4971;SDS011;2501;51.214;6.768;2023-04-24T04:55:21;13.35;;;9.43;;
4971;SDS011;2501;51.214;6.768;2023-04-24T04:57:50;12.55;;;9.45;;
4971;SDS011;2501;51.214;6.768;2023-04-24T05:00:20;16.15;;;9.70;;
4971;SDS011;2501;51.214;6.768;2023-04-24T05:02:50;13.00;;;10.00;;
4971;SDS011;2501;51.214;6.768;2023-04-24T05:05:19;12.83;;;9.83;;
4971;SDS011;2501;51.214;6.768;2023-04-24T05:07:50;12.95;;;9.32;;
4971;SDS011;2501;51.214;6.768;2023-04-24T05:10:18;14.55;;;10.57;;
4971;SDS011;2501;51.214;6.768;2023-04-24T05:12:47;13.10;;;8.52;;
4971;SDS011;2501;51.214;6.768;2023-04-24T05:15:15;16.42;;;9.15;;
4971;SDS011;2501;51.214;6.768;2023-04-24T05:17:44;13.85;;;8.70;;
4971;SDS011;2501;51.214;6.768;2023-04-24T05:20:12;12.45;;;9.07;;
4971;SDS011;2501;51.214;6.768;2023-04-24T05:22:41;11.15;;;7.72;;
4971;SDS011;2501;51.214;6.768;2023-04-24T05:25:12;12.10;;;7.57;;
4971;SDS011;2501;51.214;6.768;2023-04-24T05:27:40;10.90;;;7.70;;
4971;SDS011;2501;51.214;6.768;2023-04-24T05:30:09;11.27;;;8.50;;
4971;SDS011;2501;51.214;6.768;2023-04-24T05:32:38;11.20;;;8.52;;
4971;SDS011;2501;51.214;6.768;2023-04-24T05:35:07;10.18;;;7.88;;
4971;SDS011;2501;51.214;6.768;2023-04-24T05:37:36;12.88;;;7.93;;
4971;SDS011;2501;51.214;6.768;2023-04-24T05:40:05;13.65;;;9.05;;
4971;SDS011;2501;51.214;6.768;2023-04-24T05:42:37;12.48;;;7.97;;
4971;SDS011;2501;51.214;6.768;2023-04-24T05:45:06;10.48;;;8.02;;
4971;SDS011;2501;51.214;6.768;2023-04-24T05:47:39;9.93;;;8.15;;
4971;SDS011;2501;51.214;6.768;2023-04-24T05:50:09;12.27;;;8.20;;
4971;SDS011;2501;51.214;6.768;2023-04-24T05:52:37;10.60;;;8.20;;
4971;SDS011;2501;51.214;6.768;2023-04-24T05:55:06;10.63;;;8.27;;
4971;SDS011;2501;51.214;6.768;2023-04-24T05:57:38;11.10;;;7.97;;
4971;SDS011;2501;51.214;6.768;2023-04-24T06:00:07;13.80;;;8.20;;
4971;SDS011;2501;51.214;6.768;2023-04-24T06:02:37;10.07;;;7.50;;
4971;SDS011;2501;51.214;6.768;2023-04-24T06:05:05;11.80;;;7.88;;
4971;SDS011;2501;51.214;6.768;2023-04-24T06:07:34;17.70;;;9.48;;
4971;SDS011;2501;51.214;6.768;2023-04-24T06:10:03;13.77;;;8.43;;
4971;SDS011;2501;51.214;6.768;2023-04-24T06:12:33;15.98;;;9.82;;
4971;SDS011;2501;51.214;6.768;2023-04-24T06:15:04;14.35;;;8.85;;
4971;SDS011;2501;51.214;6.768;2023-04-24T06:17:33;12.18;;;8.00;;
4971;SDS011;2501;51.214;6.768;2023-04-24T06:20:02;12.05;;;8.35;;
4971;SDS011;2501;51.214;6.768;2023-04-24T06:22:33;14.15;;;7.95;;
4971;SDS011;2501;51.214;6.768;2023-04-24T06:25:01;6.85;;;5.97;;
4971;SDS011;2501;51.214;6.768;2023-04-24T06:27:30;9.35;;;6.70;;
4971;SDS011;2501;51.214;6.768;2023-04-24T06:29:59;6.60;;;6.00;;
4971;SDS011;2501;51.214;6.768;2023-04-24T06:32:30;7.10;;;5.75;;
4971;SDS011;2501;51.214;6.768;2023-04-24T06:34:58;7.88;;;5.75;;
4971;SDS011;2501;51.214;6.768;2023-04-24T06:37:27;5.70;;;5.20;;
4971;SDS011;2501;51.214;6.768;2023-04-24T06:39:55;6.00;;;5.40;;
4971;SDS011;2501;51.214;6.768;2023-04-24T06:42:24;8.98;;;5.90;;
4971;SDS011;2501;51.214;6.768;2023-04-24T06:44:52;6.82;;;5.72;;
4971;SDS011;2501;51.214;6.768;2023-04-24T06:47:20;7.32;;;6.30;;
4971;SDS011;2501;51.214;6.768;2023-04-24T06:49:52;11.87;;;5.53;;
4971;SDS011;2501;51.214;6.768;2023-04-24T06:52:20;8.90;;;5.72;;
4971;SDS011;2501;51.214;6.768;2023-04-24T06:54:49;7.13;;;5.72;;
4971;SDS011;2501;51.214;6.768;2023-04-24T06:57:17;7.32;;;5.00;;
4971;SDS011;2501;51.214;6.768;2023-04-24T06:59:47;9.87;;;5.50;;
4971;SDS011;2501;51.214;6.768;2023-04-24T07:02:15;5.60;;;5.00;;
4971;SDS011;2501;51.214;6.768;2023-04-24T07:04:43;7.88;;;5.40;;
4971;SDS011;2501;51.214;6.768;2023-04-24T07:07:15;6.60;;;5.00;;
4971;SDS011;2501;51.214;6.768;2023-04-24T07:09:43;5.38;;;4.88;;
4971;SDS011;2501;51.214;6.768;2023-04-24T07:12:12;5.57;;;4.63;;
4971;SDS011;2501;51.214;6.768;2023-04-24T07:14:42;8.00;;;4.38;;
4971;SDS011;2501;51.214;6.768;2023-04-24T07:17:10;6.13;;;4.05;;
4971;SDS011;2501;51.214;6.768;2023-04-24T07:19:38;3.90;;;3.70;;
4971;SDS011;2501;51.214;6.768;2023-04-24T07:22:07;4.20;;;3.53;;
4971;SDS011;2501;51.214;6.768;2023-04-24T07:24:44;3.40;;;3.10;;
4971;SDS011;2501;51.214;6.768;2023-04-24T07:27:12;6.40;;;3.10;;
4971;SDS011;2501;51.214;6.768;2023-04-24T07:29:41;2.47;;;2.28;;
4971;SDS011;2501;51.214;6.768;2023-04-24T07:32:10;2.40;;;2.20;;
4971;SDS011;2501;51.214;6.768;2023-04-24T07:34:38;2.10;;;2.00;;
4971;SDS011;2501;51.214;6.768;2023-04-24T07:37:07;4.70;;;2.17;;
4971;SDS011;2501;51.214;6.768;2023-04-24T07:39:35;2.60;;;1.60;;
4971;SDS011;2501;51.214;6.768;2023-04-24T07:42:06;1.10;;;1.00;;
4971;SDS011;2501;51.214;6.768;2023-04-24T07:44:35;1.70;;;1.10;;
4971;SDS011;2501;51.214;6.768;2023-04-24T07:47:03;2.60;;;1.30;;
4971;SDS011;2501;51.214;6.768;2023-04-24T07:49:32;1.70;;;1.00;;
4971;SDS011;2501;51.214;6.768;2023-04-24T07:52:01;1.15;;;0.80;;
4971;SDS011;2501;51.214;6.768;2023-04-24T07:54:30;4.60;;;1.20;;
4971;SDS011;2501;51.214;6.768;2023-04-24T07:56:58;3.05;;;1.00;;
4971;SDS011;2501;51.214;6.768;2023-04-24T07:59:29;1.50;;;1.08;;
4971;SDS011;2501;51.214;6.768;2023-04-24T08:01:58;3.03;;;1.07;;
4971;SDS011;2501;51.214;6.768;2023-04-24T08:04:26;1.10;;;1.10;;
4971;SDS011;2501;51.214;6.768;2023-04-24T08:06:55;0.80;;;0.80;;
4971;SDS011;2501;51.214;6.768;2023-04-24T08:09:23;1.40;;;0.95;;
4971;SDS011;2501;51.214;6.768;2023-04-24T08:11:52;1.10;;;1.00;;
4971;SDS011;2501;51.214;6.768;2023-04-24T08:14:21;1.00;;;1.00;;
4971;SDS011;2501;51.214;6.768;2023-04-24T08:16:53;2.10;;;1.25;;
4971;SDS011;2501;51.214;6.768;2023-04-24T08:19:25;2.63;;;1.65;;
4971;SDS011;2501;51.214;6.768;2023-04-24T08:21:53;3.00;;;1.50;;
4971;SDS011;2501;51.214;6.768;2023-04-24T08:24:22;1.73;;;1.63;;
4971;SDS011;2501;51.214;6.768;2023-04-24T08:26:50;3.30;;;2.60;;
4971;SDS011;2501;51.214;6.768;2023-04-24T08:29:21;2.50;;;2.40;;
4971;SDS011;2501;51.214;6.768;2023-04-24T08:31:53;3.30;;;3.10;;
4971;SDS011;2501;51.214;6.768;2023-04-24T08:34:22;3.53;;;3.23;;
4971;SDS011;2501;51.214;6.768;2023-04-24T08:36:50;3.50;;;3.30;;
4971;SDS011;2501;51.214;6.768;2023-04-24T08:39:19;4.40;;;4.00;;
4971;SDS011;2501;51.214;6.768;2023-04-24T08:41:48;6.57;;;4.60;;
4971;SDS011;2501;51.214;6.768;2023-04-24T08:44:16;4.68;;;3.60;;
4971;SDS011;2501;51.214;6.768;2023-04-24T08:46:47;7.13;;;3.67;;
4971;SDS011;2501;51.214;6.768;2023-04-24T08:49:19;5.10;;;4.07;;
4971;SDS011;2501;51.214;6.768;2023-04-24T08:51:48;6.57;;;4.88;;
4971;SDS011;2501;51.214;6.768;2023-04-24T08:54:18;6.55;;;5.03;;
4971;SDS011;2501;51.214;6.768;2023-04-24T08:56:47;6.72;;;4.68;;
4971;SDS011;2501;51.214;6.768;2023-04-24T08:59:16;5.70;;;4.80;;
4971;SDS011;2501;51.214;6.768;2023-04-24T09:01:46;6.17;;;4.60;;
4971;SDS011;2501;51.214;6.768;2023-04-24T09:04:18;4.07;;;3.72;;
4971;SDS011;2501;51.214;6.768;2023-04-24T09:06:49;5.65;;;3.60;;
4971;SDS011;2501;51.214;6.768;2023-04-24T09:09:18;3.75;;;3.45;;
4971;SDS011;2501;51.214;6.768;2023-04-24T09:11:47;3.97;;;3.42;;
4971;SDS011;2501;51.214;6.768;2023-04-24T09:14:18;4.10;;;3.33;;
4971;SDS011;2501;51.214;6.768;2023-04-24T09:16:48;5.18;;;4.40;;
4971;SDS011;2501;51.214;6.768;2023-04-24T09:19:20;6.03;;;4.30;;
4971;SDS011;2501;51.214;6.768;2023-04-24T09:21:49;8.93;;;5.15;;
4971;SDS011;2501;51.214;6.768;2023-04-24T09:24:21;6.13;;;4.75;;
4971;SDS011;2501;51.214;6.768;2023-04-24T09:26:55;7.20;;;5.40;;
4971;SDS011;2501;51.214;6.768;2023-04-24T09:29:26;5.82;;;4.32;;
4971;SDS011;2501;51.214;6.768;2023-04-24T09:31:57;9.63;;;5.70;;
4971;SDS011;2501;51.214;6.768;2023-04-24T09:34:29;6.75;;;4.63;;
4971;SDS011;2501;51.214;6.768;2023-04-24T09:36:57;7.47;;;5.80;;
4971;SDS011;2501;51.214;6.768;2023-04-24T09:39:25;10.40;;;5.50;;
4971;SDS011;2501;51.214;6.768;2023-04-24T09:41:55;10.05;;;6.22;;
4971;SDS011;2501;51.214;6.768;2023-04-24T09:44:26;12.48;;;6.40;;
4971;SDS011;2501;51.214;6.768;2023-04-24T09:46:55;13.20;;;5.75;;
4971;SDS011;2501;51.214;6.768;2023-04-24T09:49:26;9.95;;;6.00;;
4971;SDS011;2501;51.214;6.768;2023-04-24T09:52:02;10.95;;;7.35;;
4971;SDS011;2501;51.214;6.768;2023-04-24T09:54:32;17.27;;;8.20;;
4971;SDS011;2501;51.214;6.768;2023-04-24T09:57:01;14.65;;;9.27;;
4971;SDS011;2501;51.214;6.768;2023-04-24T09:59:30;16.53;;;8.57;;
4971;SDS011;2501;51.214;6.768;2023-04-24T10:01:59;15.40;;;8.20;;
4971;SDS011;2501;51.214;6.768;2023-04-24T10:04:30;16.02;;;8.57;;
4971;SDS011;2501;51.214;6.768;2023-04-24T10:06:59;17.80;;;9.23;;
4971;SDS011;2501;51.214;6.768;2023-04-24T10:09:32;15.03;;;8.53;;
4971;SDS011;2501;51.214;6.768;2023-04-24T10:12:01;17.92;;;8.50;;
4971;SDS011;2501;51.214;6.768;2023-04-24T10:14:30;16.23;;;8.88;;
4971;SDS011;2501;51.214;6.768;2023-04-24T10:16:58;19.10;;;9.30;;
4971;SDS011;2501;51.214;6.768;2023-04-24T10:19:30;19.83;;;9.35;;
4971;SDS011;2501;51.214;6.768;2023-04-24T10:22:00;18.05;;;9.00;;
4971;SDS011;2501;51.214;6.768;2023-04-24T10:24:30;20.75;;;8.40;;
4971;SDS011;2501;51.214;6.768;2023-04-24T10:27:02;20.38;;;8.88;;
4971;SDS011;2501;51.214;6.768;2023-04-24T10:29:35;21.00;;;8.70;;
4971;SDS011;2501;51.214;6.768;2023-04-24T10:32:07;17.63;;;8.05;;
4971;SDS011;2501;51.214;6.768;2023-04-24T10:34:39;19.80;;;8.50;;
4971;SDS011;2501;51.214;6.768;2023-04-24T10:37:08;20.80;;;8.85;;
4971;SDS011;2501;51.214;6.768;2023-04-24T10:39:38;17.92;;;8.38;;
4971;SDS011;2501;51.214;6.768;2023-04-24T10:42:13;26.00;;;9.30;;
4971;SDS011;2501;51.214;6.768;2023-04-24T10:44:43;20.40;;;8.20;;
4971;SDS011;2501;51.214;6.768;2023-04-24T10:47:12;16.65;;;7.95;;
4971;SDS011;2501;51.214;6.768;2023-04-24T10:49:44;22.02;;;7.70;;
4971;SDS011;2501;51.214;6.768;2023-04-24T10:52:13;13.82;;;6.07;;
4971;SDS011;2501;51.214;6.768;2023-04-24T10:54:42;14.02;;;5.95;;
4971;SDS011;2501;51.214;6.768;2023-04-24T10:57:26;14.73;;;7.22;;
4971;SDS011;2501;51.214;6.768;2023-04-24T11:02:45;16.52;;;5.68;;
4971;SDS011;2501;51.214;6.768;2023-04-24T11:05:20;11.27;;;4.70;;
4971;SDS011;2501;51.214;6.768;2023-04-24T11:10:40;10.73;;;4.72;;
4971;SDS011;2501;51.214;6.768;2023-04-24T11:13:14;11.50;;;4.40;;
4971;SDS011;2501;51.214;6.768;2023-04-24T11:15:43;12.43;;;4.07;;
4971;SDS011;2501;51.214;6.768;2023-04-24T11:18:14;14.52;;;4.50;;
4971;SDS011;2501;51.214;6.768;2023-04-24T11:20:46;12.57;;;4.97;;
4971;SDS011;2501;51.214;6.768;2023-04-24T11:23:14;11.50;;;4.18;;
4971;SDS011;2501;51.214;6.768;2023-04-24T11:25:43;16.13;;;4.88;;
4971;SDS011;2501;51.214;6.768;2023-04-24T11:28:14;8.05;;;3.88;;
4971;SDS011;2501;51.214;6.768;2023-04-24T11:30:44;7.47;;;4.15;;
4971;SDS011;2501;51.214;6.768;2023-04-24T11:33:12;9.95;;;4.10;;
4971;SDS011;2501;51.214;6.768;2023-04-24T11:35:50;11.07;;;4.30;;
4971;SDS011;2501;51.214;6.768;2023-04-24T11:38:19;12.25;;;4.70;;
4971;SDS011;2501;51.214;6.768;2023-04-24T11:40:48;11.15;;;4.28;;
4971;SDS011;2501;51.214;6.768;2023-04-24T11:43:17;17.35;;;4.13;;
4971;SDS011;2501;51.214;6.768;2023-04-24T11:45:47;9.60;;;3.90;;
4971;SDS011;2501;51.214;6.768;2023-04-24T11:48:18;14.68;;;4.25;;
4971;SDS011;2501;51.214;6.768;2023-04-24T11:50:47;10.63;;;3.80;;
4971;SDS011;2501;51.214;6.768;2023-04-24T11:53:18;14.15;;;4.03;;
4971;SDS011;2501;51.214;6.768;2023-04-24T11:55:47;13.90;;;3.50;;
4971;SDS011;2501;51.214;6.768;2023-04-24T11:58:16;14.80;;;4.45;;
4971;SDS011;2501;51.214;6.768;2023-04-24T12:00:55;9.85;;;3.88;;
4971;SDS011;2501;51.214;6.768;2023-04-24T12:03:26;12.57;;;4.30;;
4971;SDS011;2501;51.214;6.768;2023-04-24T12:06:04;13.82;;;4.30;;
4971;SDS011;2501;51.214;6.768;2023-04-24T12:08:36;13.43;;;3.92;;
4971;SDS011;2501;51.214;6.768;2023-04-24T12:11:06;12.05;;;3.95;;
4971;SDS011;2501;51.214;6.768;2023-04-24T12:13:35;15.68;;;4.18;;
4971;SDS011;2501;51.214;6.768;2023-04-24T12:16:04;14.60;;;3.90;;
4971;SDS011;2501;51.214;6.768;2023-04-24T12:18:33;15.95;;;4.55;;
4971;SDS011;2501;51.214;6.768;2023-04-24T12:23:48;11.15;;;4.53;;
4971;SDS011;2501;51.214;6.768;2023-04-24T12:26:17;9.95;;;3.85;;
4971;SDS011;2501;51.214;6.768;2023-04-24T12:28:48;13.55;;;3.17;;
4971;SDS011;2501;51.214;6.768;2023-04-24T12:31:17;5.03;;;2.63;;
4971;SDS011;2501;51.214;6.768;2023-04-24T12:33:45;7.38;;;2.58;;
4971;SDS011;2501;51.214;6.768;2023-04-24T12:36:14;8.50;;;2.50;;
4971;SDS011;2501;51.214;6.768;2023-04-24T12:38:43;9.10;;;2.78;;
4971;SDS011;2501;51.214;6.768;2023-04-24T12:41:14;9.48;;;4.50;;
4971;SDS011;2501;51.214;6.768;2023-04-24T12:43:51;8.48;;;4.05;;
4971;SDS011;2501;51.214;6.768;2023-04-24T12:46:20;3.78;;;2.05;;
4971;SDS011;2501;51.214;6.768;2023-04-24T12:48:49;6.00;;;2.13;;
4971;SDS011;2501;51.214;6.768;2023-04-24T12:51:18;4.88;;;2.10;;
4971;SDS011;2501;51.214;6.768;2023-04-24T12:53:46;6.40;;;2.10;;
4971;SDS011;2501;51.214;6.768;2023-04-24T12:56:17;2.80;;;1.40;;
4971;SDS011;2501;51.214;6.768;2023-04-24T12:58:46;1.75;;;1.65;;
4971;SDS011;2501;51.214;6.768;2023-04-24T13:01:16;6.23;;;1.60;;
4971;SDS011;2501;51.214;6.768;2023-04-24T13:03:45;4.38;;;1.80;;
4971;SDS011;2501;51.214;6.768;2023-04-24T13:06:13;5.28;;;1.70;;
4971;SDS011;2501;51.214;6.768;2023-04-24T13:08:42;6.05;;;1.33;;
4971;SDS011;2501;51.214;6.768;2023-04-24T13:11:12;2.38;;;2.00;;
4971;SDS011;2501;51.214;6.768;2023-04-24T13:13:43;5.73;;;2.23;;
4971;SDS011;2501;51.214;6.768;2023-04-24T13:16:12;7.00;;;1.80;;
4971;SDS011;2501;51.214;6.768;2023-04-24T13:18:40;8.50;;;2.40;;
4971;SDS011;2501;51.214;6.768;2023-04-24T13:21:08;5.72;;;1.30;;
4971;SDS011;2501;51.214;6.768;2023-04-24T13:23:37;3.28;;;1.25;;
4971;SDS011;2501;51.214;6.768;2023-04-24T13:26:06;7.70;;;1.70;;
4971;SDS011;2501;51.214;6.768;2023-04-24T13:28:34;4.00;;;2.00;;
4971;SDS011;2501;51.214;6.768;2023-04-24T13:31:06;2.43;;;1.70;;
4971;SDS011;2501;51.214;6.768;2023-04-24T13:33:34;3.95;;;1.98;;
4971;SDS011;2501;51.214;6.768;2023-04-24T13:36:03;4.30;;;1.90;;
4971;SDS011;2501;51.214;6.768;2023-04-24T13:38:31;3.50;;;1.90;;
4971;SDS011;2501;51.214;6.768;2023-04-24T13:40:59;7.18;;;1.90;;
4971;SDS011;2501;51.214;6.768;2023-04-24T13:43:28;9.30;;;2.73;;
4971;SDS011;2501;51.214;6.768;2023-04-24T13:45:56;4.43;;;2.30;;
4971;SDS011;2501;51.214;6.768;2023-04-24T13:48:30;4.03;;;1.70;;
4971;SDS011;2501;51.214;6.768;2023-04-24T13:51:02;5.35;;;1.52;;
4971;SDS011;2501;51.214;6.768;2023-04-24T13:53:36;3.88;;;2.10;;
4971;SDS011;2501;51.214;6.768;2023-04-24T13:56:06;8.00;;;2.10;;
4971;SDS011;2501;51.214;6.768;2023-04-24T13:58:34;5.00;;;2.10;;
4971;SDS011;2501;51.214;6.768;2023-04-24T14:01:04;5.70;;;1.70;;
4971;SDS011;2501;51.214;6.768;2023-04-24T14:03:35;4.97;;;2.10;;
4971;SDS011;2501;51.214;6.768;2023-04-24T14:06:05;6.88;;;2.40;;
4971;SDS011;2501;51.214;6.768;2023-04-24T14:08:34;6.82;;;2.20;;
4971;SDS011;2501;51.214;6.768;2023-04-24T14:11:03;6.97;;;2.53;;
4971;SDS011;2501;51.214;6.768;2023-04-24T14:13:32;3.60;;;1.90;;
4971;SDS011;2501;51.214;6.768;2023-04-24T14:16:00;5.57;;;2.33;;
4971;SDS011;2501;51.214;6.768;2023-04-24T14:18:29;3.70;;;1.67;;
4971;SDS011;2501;51.214;6.768;2023-04-24T14:21:00;5.05;;;1.90;;
4971;SDS011;2501;51.214;6.768;2023-04-24T14:23:29;5.40;;;1.70;;
4971;SDS011;2501;51.214;6.768;2023-04-24T14:25:57;5.30;;;2.20;;
4971;SDS011;2501;51.214;6.768;2023-04-24T14:28:26;6.55;;;1.40;;
4971;SDS011;2501;51.214;6.768;2023-04-24T14:30:55;3.33;;;1.50;;
4971;SDS011;2501;51.214;6.768;2023-04-24T14:33:24;2.20;;;2.00;;
4971;SDS011;2501;51.214;6.768;2023-04-24T14:35:52;3.90;;;1.73;;
4971;SDS011;2501;51.214;6.768;2023-04-24T14:38:24;3.22;;;1.90;;
4971;SDS011;2501;51.214;6.768;2023-04-24T14:40:52;6.95;;;1.80;;
4971;SDS011;2501;51.214;6.768;2023-04-24T14:43:21;5.80;;;1.90;;
4971;SDS011;2501;51.214;6.768;2023-04-24T14:45:49;3.10;;;1.80;;
4971;SDS011;2501;51.214;6.768;2023-04-24T14:48:18;4.25;;;2.05;;
4971;SDS011;2501;51.214;6.768;2023-04-24T14:50:46;4.78;;;2.20;;
4971;SDS011;2501;51.214;6.768;2023-04-24T14:53:15;5.77;;;2.10;;
4971;SDS011;2501;51.214;6.768;2023-04-24T14:55:46;3.22;;;1.67;;
4971;SDS011;2501;51.214;6.768;2023-04-24T14:58:15;6.35;;;2.15;;
4971;SDS011;2501;51.214;6.768;2023-04-24T15:00:43;4.95;;;1.90;;
4971;SDS011;2501;51.214;6.768;2023-04-24T15:03:15;3.50;;;1.73;;
4971;SDS011;2501;51.214;6.768;2023-04-24T15:05:43;3.90;;;1.70;;
4971;SDS011;2501;51.214;6.768;2023-04-24T15:08:12;3.22;;;1.55;;
4971;SDS011;2501;51.214;6.768;2023-04-24T15:10:40;3.88;;;1.50;;
4971;SDS011;2501;51.214;6.768;2023-04-24T15:13:11;4.60;;;1.60;;
4971;SDS011;2501;51.214;6.768;2023-04-24T15:15:40;3.50;;;1.80;;
4971;SDS011;2501;51.214;6.768;2023-04-24T15:18:09;4.45;;;1.65;;
4971;SDS011;2501;51.214;6.768;2023-04-24T15:20:38;6.80;;;2.47;;
4971;SDS011;2501;51.214;6.768;2023-04-24T15:23:07;2.58;;;1.98;;
4971;SDS011;2501;51.214;6.768;2023-04-24T15:25:37;3.13;;;1.55;;
4971;SDS011;2501;51.214;6.768;2023-04-24T15:28:05;2.67;;;1.80;;
4971;SDS011;2501;51.214;6.768;2023-04-24T15:30:37;4.63;;;1.83;;
4971;SDS011;2501;51.214;6.768;2023-04-24T15:33:05;4.80;;;2.10;;